createdAt,value
2018-04-15T00:00:16.973Z,100696.02
2018-04-15T00:01:23.313Z,100693.82
2018-04-15T00:02:29.790Z,100704.45
2018-04-15T00:03:36.101Z,100701.20
2018-04-15T00:04:42.320Z,100701.57
2018-04-15T00:05:48.622Z,100700.14
2018-04-15T00:06:54.860Z,100701.02
2018-04-15T00:08:02.466Z,100701.84
2018-04-15T00:09:08.936Z,100706.62
2018-04-15T00:10:16.699Z,100706.31
2018-04-15T00:11:22.971Z,100709.84
2018-04-15T00:12:29.263Z,100704.88
2018-04-15T00:13:35.572Z,100704.35
2018-04-15T00:14:41.787Z,100706.85
2018-04-15T00:15:48.103Z,100709.50
2018-04-15T00:16:54.438Z,100709.05
2018-04-15T00:18:00.724Z,100704.34
2018-04-15T00:19:07.067Z,100699.55
2018-04-15T00:20:13.377Z,100689.48
2018-04-15T00:21:19.347Z,100691.92
2018-04-15T00:22:25.605Z,100689.41
2018-04-15T00:23:33.431Z,100693.06
2018-04-15T00:24:41.286Z,100694.72
2018-04-15T00:25:48.110Z,100694.73
2018-04-15T00:26:59.291Z,100694.70
2018-04-15T00:28:05.542Z,100691.95
2018-04-15T00:29:11.939Z,100685.89
2018-04-15T00:30:18.366Z,100682.73
2018-04-15T00:31:28.467Z,100683.52
2018-04-15T00:32:34.769Z,100685.02
2018-04-15T00:33:41.053Z,100682.56
2018-04-15T00:34:47.290Z,100684.50
2018-04-15T00:35:53.571Z,100675.44
2018-04-15T00:36:59.907Z,100682.31
2018-04-15T00:38:06.224Z,100682.63
2018-04-15T00:39:14.558Z,100681.50
2018-04-15T00:40:20.748Z,100683.69
2018-04-15T00:41:26.403Z,100685.97
2018-04-15T00:42:32.695Z,100679.36
2018-04-15T00:43:39.584Z,100678.65
2018-04-15T00:44:45.955Z,100678.09
2018-04-15T00:45:52.233Z,100675.96
2018-04-15T00:46:58.432Z,100676.23
2018-04-15T00:48:04.659Z,100672.23
2018-04-15T00:49:10.934Z,100670.27
2018-04-15T00:50:17.175Z,100670.36
2018-04-15T00:51:24.536Z,100665.52
2018-04-15T00:52:33.107Z,100674.31
2018-04-15T00:55:22.515Z,100665.50
2018-04-15T00:56:28.775Z,100671.19
2018-04-15T00:57:37.954Z,100667.91
2018-04-15T00:58:44.337Z,100670.92
2018-04-15T00:59:55.898Z,100673.47
2018-04-15T01:01:03.723Z,100671.42
2018-04-15T01:02:10.006Z,100664.50
2018-04-15T01:03:16.064Z,100667.51
2018-04-15T01:04:22.347Z,100663.58
2018-04-15T01:05:28.267Z,100666.77
2018-04-15T01:06:34.535Z,100663.59
2018-04-15T01:07:41.522Z,100666.48
2018-04-15T01:08:47.799Z,100663.73
2018-04-15T01:09:53.808Z,100658.00
2018-04-15T01:11:00.009Z,100654.63
2018-04-15T01:12:06.354Z,100656.70
2018-04-15T01:13:12.596Z,100654.14
2018-04-15T01:14:18.843Z,100650.16
2018-04-15T01:15:25.274Z,100654.01
2018-04-15T01:16:33.183Z,100650.05
2018-04-15T01:17:39.430Z,100645.27
2018-04-15T01:18:45.734Z,100647.09
2018-04-15T01:19:52.015Z,100646.05
2018-04-15T01:20:58.243Z,100643.79
2018-04-15T01:22:04.095Z,100642.13
2018-04-15T01:23:10.949Z,100643.36
2018-04-15T01:24:17.207Z,100638.59
2018-04-15T01:25:23.527Z,100637.69
2018-04-15T01:26:29.472Z,100631.14
2018-04-15T01:27:35.733Z,100637.66
2018-04-15T01:28:42.034Z,100638.06
2018-04-15T01:29:48.878Z,100634.20
2018-04-15T01:30:55.142Z,100629.78
2018-04-15T01:32:01.910Z,100633.85
2018-04-15T01:33:08.192Z,100627.84
2018-04-15T01:34:14.533Z,100627.19
2018-04-15T01:35:20.802Z,100620.84
2018-04-15T01:36:27.098Z,100619.77
2018-04-15T01:37:35.251Z,100619.38
2018-04-15T01:38:41.446Z,100609.22
2018-04-15T01:39:47.756Z,100608.16
2018-04-15T01:40:53.990Z,100607.06
2018-04-15T01:42:00.204Z,100603.61
2018-04-15T01:43:06.423Z,100601.27
2018-04-15T01:44:12.763Z,100602.30
2018-04-15T01:45:19.055Z,100600.11
2018-04-15T01:46:26.182Z,100598.82
2018-04-15T01:47:32.487Z,100600.41
2018-04-15T01:48:38.690Z,100595.97
2018-04-15T01:49:44.921Z,100598.33
2018-04-15T01:50:51.217Z,100595.92
2018-04-15T01:51:59.084Z,100602.75
2018-04-15T01:53:05.262Z,100606.13
2018-04-15T01:54:11.355Z,100601.03
2018-04-15T01:55:21.360Z,100607.37
2018-04-15T01:56:27.581Z,100612.14
2018-04-15T01:57:33.916Z,100606.47
2018-04-15T01:58:40.215Z,100611.91
2018-04-15T01:59:46.578Z,100606.06
2018-04-15T02:00:52.774Z,100606.42
2018-04-15T02:01:59.049Z,100600.36
2018-04-15T02:03:05.381Z,100601.97
2018-04-15T02:04:11.685Z,100602.28
2018-04-15T02:05:17.990Z,100604.84
2018-04-15T02:06:23.998Z,100597.81
2018-04-15T02:07:31.300Z,100596.41
2018-04-15T02:08:38.720Z,100598.74
2018-04-15T02:09:44.971Z,100600.28
2018-04-15T02:10:51.208Z,100595.35
2018-04-15T02:11:57.540Z,100595.74
2018-04-15T02:13:03.576Z,100598.55
2018-04-15T02:14:09.799Z,100601.88
2018-04-15T02:15:16.072Z,100598.15
2018-04-15T02:16:24.990Z,100596.89
2018-04-15T02:17:37.793Z,100596.66
2018-04-15T02:18:44.073Z,100599.28
2018-04-15T02:19:50.411Z,100600.56
2018-04-15T02:20:57.435Z,100599.98
2018-04-15T02:22:04.081Z,100597.13
2018-04-15T02:23:11.239Z,100597.07
2018-04-15T02:24:17.449Z,100600.28
2018-04-15T02:25:23.678Z,100601.98
2018-04-15T02:26:29.979Z,100600.52
2018-04-15T02:27:35.882Z,100607.95
2018-04-15T02:28:41.911Z,100609.01
2018-04-15T02:29:48.229Z,100604.89
2018-04-15T02:30:54.766Z,100604.55
2018-04-15T02:32:01.039Z,100603.01
2018-04-15T02:33:08.018Z,100604.28
2018-04-15T02:34:14.451Z,100606.06
2018-04-15T02:35:20.800Z,100600.94
2018-04-15T02:36:27.133Z,100598.79
2018-04-15T02:37:42.683Z,100596.26
2018-04-15T02:38:51.247Z,100590.03
2018-04-15T02:39:58.391Z,100588.84
2018-04-15T02:41:04.767Z,100584.95
2018-04-15T02:42:11.718Z,100593.83
2018-04-15T02:43:18.074Z,100588.99
2018-04-15T02:44:24.285Z,100585.58
2018-04-15T02:45:30.583Z,100583.28
2018-04-15T02:46:36.815Z,100580.63
2018-04-15T02:47:43.126Z,100579.82
2018-04-15T02:48:49.490Z,100579.55
2018-04-15T02:49:55.738Z,100577.03
2018-04-15T02:51:02.087Z,100578.17
2018-04-15T02:52:08.358Z,100574.73
2018-04-15T02:53:14.343Z,100574.26
2018-04-15T02:54:20.843Z,100571.56
2018-04-15T02:55:27.150Z,100574.06
2018-04-15T02:56:33.427Z,100572.30
2018-04-15T02:57:40.186Z,100573.06
2018-04-15T02:58:48.443Z,100573.20
2018-04-15T02:59:54.627Z,100571.33
2018-04-15T03:01:00.928Z,100571.64
2018-04-15T03:02:08.001Z,100571.95
2018-04-15T03:03:14.234Z,100572.78
2018-04-15T03:04:20.464Z,100570.92
2018-04-15T03:05:26.750Z,100568.95
2018-04-15T03:06:33.697Z,100568.30
2018-04-15T03:07:39.996Z,100561.88
2018-04-15T03:08:46.318Z,100565.91
2018-04-15T03:09:53.872Z,100572.57
2018-04-15T03:11:00.754Z,100565.32
2018-04-15T03:12:07.129Z,100569.16
2018-04-15T03:13:13.386Z,100569.90
2018-04-15T03:14:19.596Z,100569.77
2018-04-15T03:15:25.935Z,100568.39
2018-04-15T03:16:31.938Z,100570.53
2018-04-15T03:17:43.341Z,100562.59
2018-04-15T03:18:49.855Z,100566.70
2018-04-15T03:19:56.179Z,100558.44
2018-04-15T03:21:02.177Z,100559.27
2018-04-15T03:22:08.474Z,100557.66
2018-04-15T03:23:14.717Z,100557.23
2018-04-15T03:24:20.954Z,100554.38
2018-04-15T03:25:30.255Z,100552.88
2018-04-15T03:26:36.499Z,100556.22
2018-04-15T03:27:42.762Z,100550.33
2018-04-15T03:28:49.681Z,100553.47
2018-04-15T03:29:55.962Z,100543.84
2018-04-15T03:31:02.330Z,100549.20
2018-04-15T03:32:08.603Z,100545.77
2018-04-15T03:33:14.924Z,100548.27
2018-04-15T03:34:22.375Z,100550.13
2018-04-15T03:35:29.362Z,100550.63
2018-04-15T03:36:36.045Z,100550.69
2018-04-15T03:37:42.847Z,100556.78
2018-04-15T03:38:49.588Z,100550.01
2018-04-15T03:39:56.515Z,100549.61
2018-04-15T03:41:06.270Z,100541.39
2018-04-15T03:42:12.892Z,100541.09
2018-04-15T03:43:19.657Z,100542.09
2018-04-15T03:44:26.260Z,100538.66
2018-04-15T03:45:32.493Z,100543.56
2018-04-15T03:46:38.934Z,100544.05
2018-04-15T03:47:46.527Z,100543.89
2018-04-15T03:48:53.102Z,100541.50
2018-04-15T03:49:59.398Z,100544.12
2018-04-15T03:51:05.902Z,100543.03
2018-04-15T03:52:12.526Z,100544.70
2018-04-15T03:53:19.487Z,100541.43
2018-04-15T03:54:26.898Z,100538.14
2018-04-15T03:55:34.108Z,100539.39
2018-04-15T03:56:41.322Z,100544.48
2018-04-15T03:57:47.505Z,100545.64
2018-04-15T03:58:55.279Z,100541.31
2018-04-15T04:00:01.198Z,100539.46
2018-04-15T04:01:07.449Z,100547.51
2018-04-15T04:02:14.311Z,100541.93
2018-04-15T04:03:20.984Z,100543.43
2018-04-15T04:04:27.306Z,100538.49
2018-04-15T04:05:34.067Z,100548.98
2018-04-15T04:06:41.483Z,100547.56
2018-04-15T04:07:47.916Z,100548.14
2018-04-15T04:08:54.144Z,100542.10
2018-04-15T04:10:00.951Z,100545.91
2018-04-15T04:11:07.776Z,100537.77
2018-04-15T04:12:16.141Z,100544.98
2018-04-15T04:13:22.446Z,100538.02
2018-04-15T04:14:28.735Z,100535.95
2018-04-15T04:15:34.782Z,100535.27
2018-04-15T04:16:41.019Z,100525.13
2018-04-15T04:17:58.184Z,100529.07
2018-04-15T04:19:15.284Z,100529.27
2018-04-15T04:22:15.946Z,100527.63
2018-04-15T04:23:33.049Z,100535.20
2018-04-15T04:24:51.283Z,100535.05
2018-04-15T04:26:04.896Z,100540.88
2018-04-15T04:27:11.508Z,100545.41
2018-04-15T04:28:17.807Z,100541.78
2018-04-15T04:29:25.382Z,100537.50
2018-04-15T04:30:32.095Z,100550.70
2018-04-15T04:31:38.346Z,100543.65
2018-04-15T04:32:45.384Z,100543.22
2018-04-15T04:33:51.602Z,100539.23
2018-04-15T04:34:57.844Z,100535.02
2018-04-15T04:36:04.133Z,100536.22
2018-04-15T04:37:10.406Z,100542.39
2018-04-15T04:38:16.587Z,100545.09
2018-04-15T04:39:22.846Z,100541.65
2018-04-15T04:40:29.983Z,100537.62
2018-04-15T04:41:37.242Z,100542.44
2018-04-15T04:42:44.290Z,100535.31
2018-04-15T04:43:52.573Z,100537.85
2018-04-15T04:45:01.285Z,100532.30
2018-04-15T04:46:07.487Z,100527.17
2018-04-15T04:47:13.798Z,100533.17
2018-04-15T04:48:21.068Z,100529.61
2018-04-15T04:49:27.704Z,100531.70
2018-04-15T04:50:33.644Z,100527.30
2018-04-15T04:51:40.794Z,100523.58
2018-04-15T04:52:47.606Z,100519.64
2018-04-15T04:53:53.790Z,100521.84
2018-04-15T04:55:01.282Z,100519.30
2018-04-15T04:56:08.624Z,100518.81
2018-04-15T04:57:14.888Z,100516.01
2018-04-15T04:58:21.145Z,100517.45
2018-04-15T04:59:27.419Z,100515.16
2018-04-15T05:00:34.413Z,100508.58
2018-04-15T05:01:45.839Z,100511.49
2018-04-15T05:02:52.102Z,100502.08
2018-04-15T05:03:58.394Z,100506.33
2018-04-15T05:05:12.898Z,100503.20
2018-04-15T05:06:19.361Z,100496.44
2018-04-15T05:07:25.302Z,100499.11
2018-04-15T05:08:31.611Z,100498.75
2018-04-15T05:09:38.038Z,100499.07
2018-04-15T05:10:46.037Z,100501.16
2018-04-15T05:11:52.864Z,100498.84
2018-04-15T05:12:59.130Z,100507.16
2018-04-15T05:14:05.466Z,100497.92
2018-04-15T05:15:11.756Z,100504.44
2018-04-15T05:16:17.988Z,100494.53
2018-04-15T05:17:24.912Z,100499.00
2018-04-15T05:18:31.549Z,100491.97
2018-04-15T05:19:39.260Z,100483.77
2018-04-15T05:20:45.611Z,100483.58
2018-04-15T05:21:52.016Z,100478.41
2018-04-15T05:22:59.007Z,100480.34
2018-04-15T05:24:06.333Z,100482.22
2018-04-15T05:25:13.693Z,100480.67
2018-04-15T05:26:20.018Z,100481.79
2018-04-15T05:27:26.002Z,100479.67
2018-04-15T05:28:32.656Z,100474.63
2018-04-15T05:29:39.988Z,100475.34
2018-04-15T05:30:47.323Z,100474.03
2018-04-15T05:31:53.851Z,100472.32
2018-04-15T05:33:00.818Z,100477.67
2018-04-15T05:34:07.629Z,100471.29
2018-04-15T05:35:15.279Z,100477.91
2018-04-15T05:36:23.471Z,100485.78
2018-04-15T05:37:29.957Z,100485.77
2018-04-15T05:38:39.182Z,100481.91
2018-04-15T05:39:45.832Z,100481.19
2018-04-15T05:40:52.954Z,100480.93
2018-04-15T05:42:00.186Z,100483.16
2018-04-15T05:43:07.468Z,100479.23
2018-04-15T05:44:14.554Z,100482.59
2018-04-15T05:45:22.604Z,100476.16
2018-04-15T05:46:30.695Z,100475.77
2018-04-15T05:47:37.740Z,100470.65
2018-04-15T05:48:44.178Z,100474.01
2018-04-15T05:49:50.693Z,100470.03
2018-04-15T05:50:57.696Z,100465.48
2018-04-15T05:52:03.921Z,100464.13
2018-04-15T05:53:11.031Z,100466.89
2018-04-15T05:54:17.858Z,100463.68
2018-04-15T05:55:25.242Z,100457.65
2018-04-15T05:56:32.303Z,100459.44
2018-04-15T05:57:38.820Z,100455.09
2018-04-15T05:58:45.517Z,100456.73
2018-04-15T05:59:52.026Z,100455.89
2018-04-15T06:00:58.668Z,100456.98
2018-04-15T06:02:05.569Z,100454.05
2018-04-15T06:03:15.019Z,100455.39
2018-04-15T06:04:21.913Z,100449.83
2018-04-15T06:05:28.126Z,100449.80
2018-04-15T06:06:34.611Z,100447.77
2018-04-15T06:07:47.100Z,100447.77
2018-04-15T06:08:56.413Z,100434.82
2018-04-15T06:10:03.779Z,100436.39
2018-04-15T06:11:10.390Z,100439.53
2018-04-15T06:12:17.214Z,100429.15
2018-04-15T06:13:24.444Z,100429.34
2018-04-15T06:14:32.487Z,100427.94
2018-04-15T06:15:39.421Z,100427.70
2018-04-15T06:16:47.328Z,100422.39
2018-04-15T06:17:55.448Z,100425.32
2018-04-15T06:19:02.759Z,100419.67
2018-04-15T06:20:09.888Z,100427.30
2018-04-15T06:21:16.864Z,100420.55
2018-04-15T06:22:23.655Z,100429.78
2018-04-15T06:23:32.158Z,100424.31
2018-04-15T06:24:40.535Z,100423.93
2018-04-15T06:25:47.218Z,100425.23
2018-04-15T06:26:53.996Z,100422.20
2018-04-15T06:28:01.240Z,100416.20
2018-04-15T06:29:08.162Z,100414.44
2018-04-15T06:30:14.415Z,100420.98
2018-04-15T06:31:21.450Z,100423.05
2018-04-15T06:32:29.827Z,100417.84
2018-04-15T06:33:38.289Z,100415.58
2018-04-15T06:34:44.936Z,100411.27
2018-04-15T06:35:51.187Z,100409.00
2018-04-15T06:36:57.408Z,100409.59
2018-04-15T06:38:03.725Z,100409.84
2018-04-15T06:39:10.066Z,100408.51
2018-04-15T06:40:16.663Z,100407.84
2018-04-15T06:41:22.951Z,100403.77
2018-04-15T06:42:30.209Z,100401.90
2018-04-15T06:43:37.022Z,100402.05
2018-04-15T06:44:43.292Z,100399.70
2018-04-15T06:45:50.517Z,100391.58
2018-04-15T06:46:57.950Z,100390.70
2018-04-15T06:48:07.363Z,100394.08
2018-04-15T06:49:14.996Z,100384.17
2018-04-15T06:50:22.005Z,100380.59
2018-04-15T06:51:28.416Z,100380.75
2018-04-15T06:52:35.408Z,100375.69
2018-04-15T06:53:42.474Z,100376.28
2018-04-15T06:54:50.433Z,100378.34
2018-04-15T06:55:57.770Z,100375.20
2018-04-15T06:57:10.420Z,100367.50
2018-04-15T06:58:17.366Z,100364.45
2018-04-15T06:59:24.437Z,100364.61
2018-04-15T07:00:31.243Z,100359.83
2018-04-15T07:01:38.051Z,100357.53
2018-04-15T07:02:44.278Z,100350.39
2018-04-15T07:03:51.018Z,100353.90
2018-04-15T07:04:57.457Z,100353.75
2018-04-15T07:06:04.081Z,100347.42
2018-04-15T07:07:10.699Z,100348.34
2018-04-15T07:08:17.530Z,100345.66
2018-04-15T07:09:23.782Z,100339.98
2018-04-15T07:10:30.928Z,100339.17
2018-04-15T07:11:39.188Z,100331.09
2018-04-15T07:12:47.272Z,100339.58
2018-04-15T07:13:54.110Z,100332.20
2018-04-15T07:15:02.630Z,100336.54
2018-04-15T07:16:10.102Z,100335.41
2018-04-15T07:17:17.083Z,100336.72
2018-04-15T07:18:23.598Z,100338.22
2018-04-15T07:19:31.080Z,100341.37
2018-04-15T07:20:38.518Z,100345.23
2018-04-15T07:21:46.825Z,100347.08
2018-04-15T07:22:54.110Z,100356.71
2018-04-15T07:24:00.933Z,100351.11
2018-04-15T07:25:08.897Z,100354.30
2018-04-15T07:26:15.503Z,100346.13
2018-04-15T07:27:22.530Z,100347.81
2018-04-15T07:28:29.263Z,100347.05
2018-04-15T07:29:37.832Z,100343.28
2018-04-15T07:30:46.581Z,100345.09
2018-04-15T07:31:54.059Z,100344.80
2018-04-15T07:33:01.354Z,100344.95
2018-04-15T07:34:07.602Z,100344.23
2018-04-15T07:35:13.843Z,100337.39
2018-04-15T07:36:20.517Z,100341.92
2018-04-15T07:37:26.904Z,100333.05
2018-04-15T07:38:32.942Z,100330.18
2018-04-15T07:39:39.192Z,100324.28
2018-04-15T07:40:45.488Z,100319.09
2018-04-15T07:41:51.599Z,100322.16
2018-04-15T07:42:58.004Z,100324.20
2018-04-15T07:44:03.980Z,100313.77
2018-04-15T07:45:12.634Z,100318.77
2018-04-15T07:46:21.355Z,100320.56
2018-04-15T07:47:27.667Z,100313.09
2018-04-15T07:48:33.946Z,100317.47
2018-04-15T07:49:40.294Z,100316.72
2018-04-15T07:50:46.614Z,100317.91
2018-04-15T07:51:52.910Z,100316.36
2018-04-15T07:53:00.064Z,100320.10
2018-04-15T07:54:07.231Z,100318.22
2018-04-15T07:55:13.498Z,100320.41
2018-04-15T07:56:19.784Z,100318.41
2018-04-15T07:57:26.226Z,100312.89
2018-04-15T07:58:32.542Z,100322.34
2018-04-15T07:59:38.831Z,100313.90
2018-04-15T08:00:46.103Z,100314.05
2018-04-15T08:01:52.816Z,100315.92
2018-04-15T08:02:59.814Z,100314.60
2018-04-15T08:04:06.168Z,100313.42
2018-04-15T08:05:13.608Z,100314.02
2018-04-15T08:06:21.060Z,100307.55
2018-04-15T08:07:29.308Z,100313.28
2018-04-15T08:08:36.356Z,100309.46
2018-04-15T08:09:43.776Z,100307.40
2018-04-15T08:10:51.880Z,100311.50
2018-04-15T08:12:00.025Z,100308.02
2018-04-15T08:13:08.137Z,100303.12
2018-04-15T08:14:15.782Z,100301.85
2018-04-15T08:15:23.796Z,100299.22
2018-04-15T08:16:30.552Z,100303.09
2018-04-15T08:17:37.701Z,100301.50
2018-04-15T08:18:44.633Z,100298.34
2018-04-15T08:19:52.001Z,100299.45
2018-04-15T08:21:00.037Z,100299.11
2018-04-15T08:22:07.184Z,100300.77
2018-04-15T08:23:16.396Z,100296.52
2018-04-15T08:24:23.743Z,100298.12
2018-04-15T08:25:38.639Z,100304.84
2018-04-15T08:26:47.963Z,100301.55
2018-04-15T08:27:55.848Z,100298.31
2018-04-15T08:29:02.723Z,100300.14
2018-04-15T08:30:10.437Z,100300.63
2018-04-15T08:31:17.880Z,100306.95
2018-04-15T08:32:24.601Z,100302.54
2018-04-15T08:33:31.050Z,100302.47
2018-04-15T08:34:38.287Z,100314.02
2018-04-15T08:35:49.162Z,100311.84
2018-04-15T08:36:56.561Z,100317.06
2018-04-15T08:38:03.643Z,100315.84
2018-04-15T08:39:11.631Z,100320.54
2018-04-15T08:40:25.256Z,100318.63
2018-04-15T08:41:32.449Z,100328.31
2018-04-15T08:42:40.217Z,100332.80
2018-04-15T08:43:46.695Z,100328.42
2018-04-15T08:44:54.912Z,100332.45
2018-04-15T08:46:01.173Z,100329.69
2018-04-15T08:47:08.855Z,100326.70
2018-04-15T08:48:16.237Z,100333.53
2018-04-15T08:49:24.143Z,100327.55
2018-04-15T08:50:31.131Z,100333.77
2018-04-15T08:51:38.098Z,100332.11
2018-04-15T08:52:48.468Z,100326.27
2018-04-15T08:53:59.122Z,100328.41
2018-04-15T08:55:07.063Z,100330.56
2018-04-15T08:56:14.599Z,100323.15
2018-04-15T08:57:22.571Z,100323.12
2018-04-15T08:58:30.150Z,100317.84
2018-04-15T08:59:36.966Z,100315.23
2018-04-15T09:00:44.024Z,100306.35
2018-04-15T09:01:51.174Z,100313.44
2018-04-15T09:02:59.126Z,100307.53
2018-04-15T09:04:07.434Z,100308.83
2018-04-15T09:05:14.717Z,100306.97
2018-04-15T09:06:23.638Z,100307.56
2018-04-15T09:07:29.869Z,100303.83
2018-04-15T09:08:36.928Z,100303.94
2018-04-15T09:09:43.617Z,100299.72
2018-04-15T09:10:51.035Z,100302.24
2018-04-15T09:11:57.302Z,100297.39
2018-04-15T09:13:04.735Z,100297.60
2018-04-15T09:14:11.053Z,100292.70
2018-04-15T09:15:17.279Z,100295.13
2018-04-15T09:16:23.557Z,100286.78
2018-04-15T09:17:29.978Z,100285.88
2018-04-15T09:18:36.240Z,100275.44
2018-04-15T09:19:42.550Z,100273.27
2018-04-15T09:20:48.862Z,100278.77
2018-04-15T09:21:55.201Z,100275.19
2018-04-15T09:23:01.463Z,100276.11
2018-04-15T09:24:07.674Z,100277.28
2018-04-15T09:25:14.058Z,100269.84
2018-04-15T09:26:20.336Z,100272.77
2018-04-15T09:27:27.071Z,100273.83
2018-04-15T09:28:33.358Z,100268.06
2018-04-15T09:29:39.843Z,100263.59
2018-04-15T09:30:52.333Z,100264.34
2018-04-15T09:31:58.631Z,100257.37
2018-04-15T09:33:06.368Z,100256.75
2018-04-15T09:34:13.255Z,100255.84
2018-04-15T09:35:20.386Z,100254.69
2018-04-15T09:36:27.235Z,100260.21
2018-04-15T09:37:40.800Z,100256.53
2018-04-15T09:38:50.372Z,100252.05
2018-04-15T09:39:56.684Z,100257.66
2018-04-15T09:41:05.356Z,100247.97
2018-04-15T09:42:13.914Z,100247.91
2018-04-15T09:43:20.745Z,100246.61
2018-04-15T09:44:32.034Z,100244.48
2018-04-15T09:45:40.526Z,100246.43
2018-04-15T09:46:49.627Z,100249.45
2018-04-15T09:47:56.729Z,100251.52
2018-04-15T09:49:03.335Z,100253.08
2018-04-15T09:50:10.145Z,100252.30
2018-04-15T09:51:16.840Z,100257.44
2018-04-15T09:52:24.026Z,100252.67
2018-04-15T09:53:31.818Z,100253.57
2018-04-15T09:54:38.606Z,100253.80
2018-04-15T09:55:45.304Z,100251.48
2018-04-15T09:56:52.443Z,100251.31
2018-04-15T09:57:59.164Z,100250.36
2018-04-15T09:59:06.545Z,100255.55
2018-04-15T10:00:13.262Z,100250.31
2018-04-15T10:01:21.420Z,100242.30
2018-04-15T10:02:29.416Z,100247.99
2018-04-15T10:03:36.250Z,100246.70
2018-04-15T10:04:42.903Z,100245.79
2018-04-15T10:05:49.840Z,100247.78
2018-04-15T10:06:57.178Z,100239.34
2018-04-15T10:08:04.056Z,100241.23
2018-04-15T10:09:11.369Z,100238.30
2018-04-15T10:10:18.654Z,100240.22
2018-04-15T10:11:25.021Z,100238.10
2018-04-15T10:12:32.073Z,100238.83
2018-04-15T10:13:38.575Z,100233.02
2018-04-15T10:14:45.203Z,100233.37
2018-04-15T10:15:56.839Z,100239.77
2018-04-15T10:17:04.785Z,100227.59
2018-04-15T10:18:11.647Z,100228.48
2018-04-15T10:19:19.995Z,100230.14
2018-04-15T10:20:28.469Z,100233.20
2018-04-15T10:21:35.357Z,100231.16
2018-04-15T10:22:42.076Z,100228.04
2018-04-15T10:23:48.875Z,100222.56
2018-04-15T10:24:57.158Z,100225.70
2018-04-15T10:26:05.107Z,100226.58
2018-04-15T10:27:11.831Z,100226.24
2018-04-15T10:28:19.167Z,100220.49
2018-04-15T10:29:25.985Z,100222.36
2018-04-15T10:30:33.456Z,100221.76
2018-04-15T10:31:40.123Z,100218.05
2018-04-15T10:32:47.726Z,100217.20
2018-04-15T10:33:54.412Z,100220.61
2018-04-15T10:35:01.845Z,100216.75
2018-04-15T10:36:09.621Z,100217.19
2018-04-15T10:37:17.026Z,100217.63
2018-04-15T10:38:25.396Z,100212.83
2018-04-15T10:39:32.210Z,100210.08
2018-04-15T10:40:44.578Z,100205.82
2018-04-15T10:41:53.846Z,100204.72
2018-04-15T10:43:01.770Z,100202.09
2018-04-15T10:44:08.511Z,100200.61
2018-04-15T10:45:15.232Z,100193.70
2018-04-15T10:46:21.864Z,100191.34
2018-04-15T10:47:33.995Z,100192.53
2018-04-15T10:48:40.898Z,100196.16
2018-04-15T10:49:48.018Z,100192.30
2018-04-15T10:50:55.058Z,100196.72
2018-04-15T10:52:01.741Z,100194.84
2018-04-15T10:53:09.169Z,100194.50
2018-04-15T10:54:17.188Z,100192.45
2018-04-15T10:55:25.497Z,100191.81
2018-04-15T10:56:33.499Z,100189.39
2018-04-15T10:57:41.650Z,100189.52
2018-04-15T10:58:48.312Z,100188.83
2018-04-15T10:59:55.309Z,100189.92
2018-04-15T11:01:02.311Z,100180.22
2018-04-15T11:02:08.936Z,100186.65
2018-04-15T11:03:15.685Z,100187.17
2018-04-15T11:04:23.410Z,100183.08
2018-04-15T11:05:30.439Z,100181.52
2018-04-15T11:06:37.964Z,100180.42
2018-04-15T11:07:45.121Z,100187.72
2018-04-15T11:08:52.746Z,100173.93
2018-04-15T11:09:59.575Z,100170.43
2018-04-15T11:11:06.093Z,100178.21
2018-04-15T11:12:14.122Z,100179.77
2018-04-15T11:13:20.488Z,100187.48
2018-04-15T11:14:28.373Z,100182.35
2018-04-15T11:15:35.727Z,100181.49
2018-04-15T11:16:42.427Z,100177.15
2018-04-15T11:17:48.709Z,100180.91
2018-04-15T11:18:55.029Z,100185.55
2018-04-15T11:20:01.394Z,100184.03
2018-04-15T11:21:07.616Z,100180.98
2018-04-15T11:22:13.859Z,100180.15
2018-04-15T11:23:20.166Z,100178.94
2018-04-15T11:24:27.694Z,100181.77
2018-04-15T11:25:33.956Z,100179.97
2018-04-15T11:26:40.971Z,100183.22
2018-04-15T11:27:47.506Z,100182.78
2018-04-15T11:28:53.799Z,100186.90
2018-04-15T11:30:00.130Z,100184.81
2018-04-15T11:31:06.418Z,100184.81
2018-04-15T11:32:13.348Z,100186.89
2018-04-15T11:33:21.025Z,100188.53
2018-04-15T11:34:27.455Z,100183.25
2018-04-15T11:35:34.326Z,100183.25
2018-04-15T11:36:40.634Z,100188.71
2018-04-15T11:37:47.311Z,100181.94
2018-04-15T11:38:53.920Z,100179.80
2018-04-15T11:40:00.289Z,100175.53
2018-04-15T11:41:06.297Z,100176.56
2018-04-15T11:42:13.793Z,100173.47
2018-04-15T11:43:21.265Z,100173.18
2018-04-15T11:44:27.368Z,100173.20
2018-04-15T11:45:34.145Z,100173.41
2018-04-15T11:46:40.402Z,100170.95
2018-04-15T11:47:46.819Z,100172.64
2018-04-15T11:48:53.218Z,100175.83
2018-04-15T11:50:03.636Z,100173.89
2018-04-15T11:51:10.915Z,100178.69
2018-04-15T11:52:17.272Z,100177.95
2018-04-15T11:53:23.891Z,100176.65
2018-04-15T11:54:38.045Z,100172.08
2018-04-15T11:55:45.350Z,100171.57
2018-04-15T11:56:55.739Z,100169.59
2018-04-15T11:58:03.090Z,100170.33
2018-04-15T11:59:10.237Z,100165.05
2018-04-15T12:00:17.356Z,100160.95
2018-04-15T12:01:25.190Z,100164.64
2018-04-15T12:02:32.156Z,100160.94
2018-04-15T12:03:39.998Z,100160.80
2018-04-15T12:04:47.558Z,100157.62
2018-04-15T12:05:55.766Z,100156.94
2018-04-15T12:07:03.955Z,100156.72
2018-04-15T12:08:10.835Z,100158.10
2018-04-15T12:09:17.603Z,100150.77
2018-04-15T12:10:24.316Z,100149.32
2018-04-15T12:11:31.145Z,100150.08
2018-04-15T12:12:37.769Z,100151.02
2018-04-15T12:13:44.318Z,100150.81
2018-04-15T12:14:53.236Z,100148.76
2018-04-15T12:15:59.936Z,100147.00
2018-04-15T12:17:08.032Z,100145.13
2018-04-15T12:18:15.157Z,100141.37
2018-04-15T12:19:21.708Z,100140.30
2018-04-15T12:20:28.966Z,100144.94
2018-04-15T12:21:36.794Z,100144.12
2018-04-15T12:22:44.076Z,100147.55
2018-04-15T12:23:50.441Z,100143.84
2018-04-15T12:24:56.749Z,100142.63
2018-04-15T12:26:04.851Z,100144.16
2018-04-15T12:27:14.761Z,100144.94
2018-04-15T12:28:21.278Z,100142.27
2018-04-15T12:29:28.003Z,100148.82
2018-04-15T12:30:35.630Z,100146.48
2018-04-15T12:31:42.252Z,100141.03
2018-04-15T12:32:48.674Z,100140.90
2018-04-15T12:33:55.074Z,100138.55
2018-04-15T12:35:01.684Z,100137.22
2018-04-15T12:36:08.922Z,100137.36
2018-04-15T12:37:17.039Z,100136.67
2018-04-15T12:38:23.510Z,100132.92
2018-04-15T12:39:30.339Z,100130.02
2018-04-15T12:40:37.385Z,100124.77
2018-04-15T12:41:45.015Z,100128.03
2018-04-15T12:42:52.340Z,100120.84
2018-04-15T12:43:59.018Z,100127.14
2018-04-15T12:45:07.074Z,100123.97
2018-04-15T12:46:13.835Z,100124.42
2018-04-15T12:47:21.126Z,100119.95
2018-04-15T12:48:28.505Z,100117.41
2018-04-15T12:49:35.380Z,100114.44